Time;durP1;ratioP1;P1;durP2;ratioP2;P2;SDS_P1;SDS_P2;PMS_P1;PMS_P2;Temp;Humidity;BMP_temperature;BMP_pressure;BME280_temperature;BME280_humidity;BME280_pressure;Samples;Min_cycle;Max_cycle;Signal;HPM_P1;HPM_P2
2023/05/11 00:01:24;;;;;;;;;;;;;;;;;;5039654;28;5080;-62
2023/05/11 00:03:50;;;;;;;;;;;;;;;;;;5050218;28;1117;-62
2023/05/11 00:06:15;;;;;;;;;;;;;;;;;;5050969;28;5205;-62
2023/05/11 00:08:40;;;;;;;;;;;;;;;;;;5050594;28;6488;-62
2023/05/11 00:11:08;;;;;;;;;;;;;;;;;;5050753;28;4618;-61
2023/05/11 00:13:33;;;;;;;;;;;;;;;;;;5048102;28;5179;-61
2023/05/11 00:15:59;;;;;;;;;;;;;;;;;;5044792;28;4440;-61
2023/05/11 00:18:24;;;;;;;;;;;;;;;;;;5047073;28;1399;-62
2023/05/11 00:20:49;;;;;;;;;;;;;;;;;;5050778;28;4573;-61
2023/05/11 00:23:15;;;;;;;;;;;;;;;;;;5050623;28;4682;-61
2023/05/11 00:25:40;;;;;;;;;;;;;;;;;;5051018;28;4983;-61
2023/05/11 00:28:06;;;;;;;;;;;;;;;;;;5050451;28;4601;-62
2023/05/11 00:30:32;;;;;;;;;;;;;;;;;;5065904;28;1120;-62
2023/05/11 00:32:57;;;;;;;;;;;;;;;;;;5050415;28;4766;-62
2023/05/11 00:35:22;;;;;;;;;;;;;;;;;;5050442;28;4474;-61
2023/05/11 00:37:48;;;;;;;;;;;;;;;;;;5050770;28;4725;-63
2023/05/11 00:40:13;;;;;;;;;;;;;;;;;;5050204;28;4629;-63
2023/05/11 00:42:38;;;;;;;;;;;;;;;;;;5051202;28;1085;-63
2023/05/11 00:45:04;;;;;;;;;;;;;;;;;;5045418;28;4615;-62
2023/05/11 00:47:29;;;;;;;;;;;;;;;;;;5050134;28;5073;-62
2023/05/11 00:49:54;;;;;;;;;;;;;;;;;;5046453;28;4537;-62
2023/05/11 00:52:20;;;;;;;;;;;;;;;;;;5054553;28;4548;-62
2023/05/11 00:54:45;;;;;;;;;;;;;;;;;;5055258;28;1151;-62
2023/05/11 00:57:10;;;;;;;;;;;;;;;;;;5050040;28;4670;-63
2023/05/11 00:59:36;;;;;;;;;;;;;;;;;;5050047;28;4470;-63
2023/05/11 01:02:01;;;;;;;;;;;;;;;;;;5048211;28;4521;-62
2023/05/11 01:04:27;;;;;;;;;;;;;;;;;;5049972;28;4466;-62
2023/05/11 01:07:09;;;;;;;;;;;;;;;;;;5050619;28;1105;-63
2023/05/11 01:09:40;;;;;;;;;;;;;;;;;;5048512;28;6540;-63
2023/05/11 01:12:15;;;;;;;;;;;;;;;;;;5049831;28;4991;-63
2023/05/11 01:14:41;;;;;;;;;;;;;;;;;;5048526;28;5129;-62
2023/05/11 01:17:10;;;;;;;;;;;;;;;;;;5048351;28;4637;-62
2023/05/11 01:19:40;;;;;;;;;;;;;;;;;;5048531;28;5009;-62
2023/05/11 01:22:17;;;;;;;;;;;;;;;;;;5061875;28;5265;-61
2023/05/11 01:24:47;;;;;;;;;;;;;;;;;;5081505;28;1101;-62
2023/05/11 01:27:31;;;;;;;;;;;;;;;;;;5064331;28;5024;-62
2023/05/11 01:29:56;;;;;;;;;;;;;;;;;;5049338;28;4881;-62
2023/05/11 01:32:25;;;;;;;;;;;;;;;;;;5048864;28;4616;-61
2023/05/11 01:35:00;;;;;;;;;;;;;;;;;;5046723;28;4877;-61
2023/05/11 01:37:25;;;;;;;;;;;;;;;;;;5047034;28;4501;-61
2023/05/11 01:39:54;;;;;;;;;;;;;;;;;;5049594;28;1155;-61
2023/05/11 01:42:27;;;;;;;;;;;;;;;;;;5041000;28;4486;-60
2023/05/11 01:44:53;;;;;;;;;;;;;;;;;;5044897;28;4923;-61
2023/05/11 01:47:19;;;;;;;;;;;;;;;;;;5042932;28;4460;-61
2023/05/11 01:49:44;;;;;;;;;;;;;;;;;;5043678;28;4941;-61
2023/05/11 01:52:10;;;;;;;;;;;;;;;;;;5048547;28;5124;-61
2023/05/11 01:54:35;;;;;;;;;;;;;;;;;;5043736;28;1124;-61
2023/05/11 01:57:00;;;;;;;;;;;;;;;;;;5047763;28;4688;-61
2023/05/11 01:59:25;;;;;;;;;;;;;;;;;;5051575;28;5047;-61
2023/05/11 02:01:51;;;;;;;;;;;;;;;;;;5037447;28;4478;-61
2023/05/11 02:04:16;;;;;;;;;;;;;;;;;;5048876;28;4608;-62
2023/05/11 02:06:42;;;;;;;;;;;;;;;;;;5048087;28;1167;-62
2023/05/11 02:09:08;;;;;;;;;;;;;;;;;;5047007;28;6513;-62
2023/05/11 02:11:34;;;;;;;;;;;;;;;;;;5048669;28;4400;-63
2023/05/11 02:13:59;;;;;;;;;;;;;;;;;;5040592;28;4495;-61
2023/05/11 02:16:26;;;;;;;;;;;;;;;;;;5046172;28;4623;-61
2023/05/11 02:18:52;;;;;;;;;;;;;;;;;;5047238;28;1340;-64
2023/05/11 02:21:17;;;;;;;;;;;;;;;;;;5048523;28;4397;-62
2023/05/11 02:23:42;;;;;;;;;;;;;;;;;;5048580;28;4644;-63
2023/05/11 02:26:07;;;;;;;;;;;;;;;;;;5047056;28;5164;-62
2023/05/11 02:28:33;;;;;;;;;;;;;;;;;;5048354;28;4983;-63
2023/05/11 02:30:59;;;;;;;;;;;;;;;;;;5037356;28;4539;-63
2023/05/11 02:33:26;;;;;;;;;;;;;;;;;;5040674;28;1745;-62
2023/05/11 02:35:51;;;;;;;;;;;;;;;;;;5079965;28;5162;-63
2023/05/11 02:38:17;;;;;;;;;;;;;;;;;;5040218;28;4686;-63
2023/05/11 02:40:44;;;;;;;;;;;;;;;;;;5063570;28;4958;-62
2023/05/11 02:43:10;;;;;;;;;;;;;;;;;;5047987;28;4696;-62
2023/05/11 02:45:36;;;;;;;;;;;;;;;;;;5047036;28;1695;-62
2023/05/11 02:48:09;;;;;;;;;;;;;;;;;;5046848;28;4591;-63
2023/05/11 02:50:35;;;;;;;;;;;;;;;;;;5054348;28;4645;-62
2023/05/11 02:53:01;;;;;;;;;;;;;;;;;;5046388;28;4458;-62
2023/05/11 02:55:26;;;;;;;;;;;;;;;;;;5046210;28;4620;-62
2023/05/11 02:57:51;;;;;;;;;;;;;;;;;;5048505;28;1186;-63
2023/05/11 03:00:16;;;;;;;;;;;;;;;;;;5047846;28;4471;-62
2023/05/11 03:02:42;;;;;;;;;;;;;;;;;;5046473;28;5024;-62
2023/05/11 03:05:07;;;;;;;;;;;;;;;;;;5047992;28;4767;-63
2023/05/11 03:07:32;;;;;;;;;;;;;;;;;;5047999;28;5111;-62
2023/05/11 03:09:57;;;;;;;;;;;;;;;;;;5046655;28;6641;-62
2023/05/11 03:12:23;;;;;;;;;;;;;;;;;;5046657;28;1311;-62
2023/05/11 03:14:48;;;;;;;;;;;;;;;;;;5046356;28;4396;-60
2023/05/11 03:17:13;;;;;;;;;;;;;;;;;;5046550;28;4437;-62
2023/05/11 03:19:40;;;;;;;;;;;;;;;;;;5047589;28;5682;-62
2023/05/11 03:22:05;;;;;;;;;;;;;;;;;;5046575;28;4659;-62
2023/05/11 03:24:31;;;;;;;;;;;;;;;;;;5048439;28;1152;-62
2023/05/11 03:26:56;;;;;;;;;;;;;;;;;;5046401;28;4801;-62
2023/05/11 03:29:22;;;;;;;;;;;;;;;;;;5047968;28;4476;-62
2023/05/11 03:31:47;;;;;;;;;;;;;;;;;;5046654;28;5057;-64
2023/05/11 03:34:12;;;;;;;;;;;;;;;;;;5047147;28;4546;-65
2023/05/11 03:36:37;;;;;;;;;;;;;;;;;;5047068;28;1281;-62
2023/05/11 03:39:03;;;;;;;;;;;;;;;;;;5045989;28;4988;-62
2023/05/11 03:41:28;;;;;;;;;;;;;;;;;;5046353;28;4474;-61
2023/05/11 03:43:53;;;;;;;;;;;;;;;;;;5041899;28;5135;-62
2023/05/11 03:46:19;;;;;;;;;;;;;;;;;;5045492;28;4692;-61
2023/05/11 03:48:44;;;;;;;;;;;;;;;;;;5047693;28;1659;-62
2023/05/11 03:51:10;;;;;;;;;;;;;;;;;;5045739;28;4651;-62
2023/05/11 03:53:35;;;;;;;;;;;;;;;;;;5048049;28;4421;-63
2023/05/11 03:56:00;;;;;;;;;;;;;;;;;;5045712;28;4856;-63
2023/05/11 03:58:25;;;;;;;;;;;;;;;;;;5045922;28;4510;-63
2023/05/11 04:00:51;;;;;;;;;;;;;;;;;;5063312;28;1917;-63
2023/05/11 04:03:16;;;;;;;;;;;;;;;;;;5043915;28;4417;-63
2023/05/11 04:05:41;;;;;;;;;;;;;;;;;;5050808;28;4510;-61
2023/05/11 04:08:06;;;;;;;;;;;;;;;;;;5048481;28;5115;-61
2023/05/11 04:10:32;;;;;;;;;;;;;;;;;;5057184;28;6487;-61
2023/05/11 04:12:57;;;;;;;;;;;;;;;;;;5049895;28;5236;-63
2023/05/11 04:15:22;;;;;;;;;;;;;;;;;;5052059;28;1678;-63
2023/05/11 04:17:48;;;;;;;;;;;;;;;;;;5050684;28;4699;-63
2023/05/11 04:20:13;;;;;;;;;;;;;;;;;;5053209;28;4634;-63
2023/05/11 04:22:38;;;;;;;;;;;;;;;;;;5049447;28;5511;-62
2023/05/11 04:25:04;;;;;;;;;;;;;;;;;;5049141;28;4518;-63
2023/05/11 04:27:33;;;;;;;;;;;;;;;;;;5050084;28;1923;-62
2023/05/11 04:29:58;;;;;;;;;;;;;;;;;;5049630;28;4624;-63
2023/05/11 04:32:23;;;;;;;;;;;;;;;;;;5050148;28;5108;-63
2023/05/11 04:34:48;;;;;;;;;;;;;;;;;;5050080;28;4517;-62
2023/05/11 04:37:14;;;;;;;;;;;;;;;;;;5049950;28;4516;-62
2023/05/11 04:39:39;;;;;;;;;;;;;;;;;;5050280;28;1600;-61
2023/05/11 04:42:04;;;;;;;;;;;;;;;;;;5049853;28;4438;-61
2023/05/11 04:44:29;;;;;;;;;;;;;;;;;;5046629;28;4984;-60
2023/05/11 04:46:55;;;;;;;;;;;;;;;;;;5049661;28;5625;-63
2023/05/11 04:49:20;;;;;;;;;;;;;;;;;;5049919;28;4453;-63
2023/05/11 04:51:46;;;;;;;;;;;;;;;;;;5050671;28;1527;-62
2023/05/11 04:54:11;;;;;;;;;;;;;;;;;;5050288;28;5018;-63
2023/05/11 04:56:39;;;;;;;;;;;;;;;;;;5050080;28;5027;-62
2023/05/11 04:59:05;;;;;;;;;;;;;;;;;;5048673;28;4500;-62
2023/05/11 05:01:30;;;;;;;;;;;;;;;;;;5048181;28;4489;-61
2023/05/11 05:03:55;;;;;;;;;;;;;;;;;;5049283;28;1076;-63
2023/05/11 05:06:20;;;;;;;;;;;;;;;;;;5045517;28;4426;-64
2023/05/11 05:08:46;;;;;;;;;;;;;;;;;;5049923;28;6446;-65
2023/05/11 05:11:11;;;;;;;;;;;;;;;;;;5049669;28;4478;-61
2023/05/11 05:13:36;;;;;;;;;;;;;;;;;;5048467;28;4570;-64
2023/05/11 05:16:01;;;;;;;;;;;;;;;;;;5038263;28;4461;-62
2023/05/11 05:18:27;;;;;;;;;;;;;;;;;;5050204;28;1127;-64
2023/05/11 05:20:52;;;;;;;;;;;;;;;;;;5049740;28;4605;-63
2023/05/11 05:23:17;;;;;;;;;;;;;;;;;;5049525;28;5014;-65
2023/05/11 05:25:43;;;;;;;;;;;;;;;;;;5049479;28;5222;-64
2023/05/11 05:28:08;;;;;;;;;;;;;;;;;;5049678;28;4611;-64
2023/05/11 05:30:35;;;;;;;;;;;;;;;;;;5050045;28;1116;-63
2023/05/11 05:33:00;;;;;;;;;;;;;;;;;;5049304;28;4440;-64
2023/05/11 05:35:25;;;;;;;;;;;;;;;;;;5047809;28;4502;-63
2023/05/11 05:37:50;;;;;;;;;;;;;;;;;;5049529;28;4881;-63
2023/05/11 05:40:16;;;;;;;;;;;;;;;;;;5049124;28;4451;-64
2023/05/11 05:42:41;;;;;;;;;;;;;;;;;;5046034;28;1381;-62
2023/05/11 05:45:06;;;;;;;;;;;;;;;;;;5045575;28;4396;-64
2023/05/11 05:47:32;;;;;;;;;;;;;;;;;;5048872;28;5390;-64
2023/05/11 05:49:57;;;;;;;;;;;;;;;;;;5049197;28;4632;-63
2023/05/11 05:52:22;;;;;;;;;;;;;;;;;;5049359;28;5021;-64
2023/05/11 05:54:47;;;;;;;;;;;;;;;;;;5048129;28;1545;-64
2023/05/11 05:57:12;;;;;;;;;;;;;;;;;;5048933;28;5075;-63
2023/05/11 05:59:38;;;;;;;;;;;;;;;;;;5048882;28;4532;-62
2023/05/11 06:02:05;;;;;;;;;;;;;;;;;;5043544;28;5127;-63
2023/05/11 06:04:30;;;;;;;;;;;;;;;;;;5041607;28;4486;-63
2023/05/11 06:06:56;;;;;;;;;;;;;;;;;;5049141;28;1065;-63
2023/05/11 06:09:21;;;;;;;;;;;;;;;;;;5043520;28;6276;-62
2023/05/11 06:11:47;;;;;;;;;;;;;;;;;;5039557;28;4647;-64
2023/05/11 06:14:12;;;;;;;;;;;;;;;;;;5039622;28;4897;-63
2023/05/11 06:16:37;;;;;;;;;;;;;;;;;;5047302;28;5096;-63
2023/05/11 06:19:03;;;;;;;;;;;;;;;;;;5048317;28;4518;-63
2023/05/11 06:21:28;;;;;;;;;;;;;;;;;;5047267;28;1914;-65
2023/05/11 06:23:53;;;;;;;;;;;;;;;;;;5047817;28;4988;-63
2023/05/11 06:26:18;;;;;;;;;;;;;;;;;;5048352;28;5344;-63
2023/05/11 06:28:44;;;;;;;;;;;;;;;;;;5047016;28;4683;-63
2023/05/11 06:31:09;;;;;;;;;;;;;;;;;;5047961;28;4455;-63
2023/05/11 06:33:34;;;;;;;;;;;;;;;;;;5046830;28;1698;-63
2023/05/11 06:36:04;;;;;;;;;;;;;;;;;;5032964;28;4626;-63
2023/05/11 06:38:29;;;;;;;;;;;;;;;;;;5048154;28;4578;-63
2023/05/11 06:40:55;;;;;;;;;;;;;;;;;;5048073;28;4437;-63
2023/05/11 06:43:20;;;;;;;;;;;;;;;;;;5046840;28;4507;-63
2023/05/11 06:45:46;;;;;;;;;;;;;;;;;;5047260;28;1722;-64
2023/05/11 06:48:11;;;;;;;;;;;;;;;;;;5047927;28;4538;-63
2023/05/11 06:50:36;;;;;;;;;;;;;;;;;;5047361;28;5037;-63
2023/05/11 06:53:01;;;;;;;;;;;;;;;;;;5048481;28;4484;-64
2023/05/11 06:55:27;;;;;;;;;;;;;;;;;;5048135;28;4439;-63
2023/05/11 06:57:52;;;;;;;;;;;;;;;;;;5048107;28;1089;-62
2023/05/11 07:00:17;;;;;;;;;;;;;;;;;;5046933;28;4362;-63
2023/05/11 07:02:43;;;;;;;;;;;;;;;;;;5040764;28;4891;-61
2023/05/11 07:05:08;;;;;;;;;;;;;;;;;;5048004;28;4590;-63
2023/05/11 07:07:33;;;;;;;;;;;;;;;;;;5046454;28;4534;-63
2023/05/11 07:09:58;;;;;;;;;;;;;;;;;;5047225;28;6264;-62
2023/05/11 07:12:23;;;;;;;;;;;;;;;;;;5048249;28;1738;-63
2023/05/11 07:14:49;;;;;;;;;;;;;;;;;;5041294;28;4674;-63
2023/05/11 07:17:14;;;;;;;;;;;;;;;;;;5047593;28;5008;-62
2023/05/11 07:19:39;;;;;;;;;;;;;;;;;;5045886;28;5460;-63
2023/05/11 07:22:04;;;;;;;;;;;;;;;;;;5045989;28;5450;-62
2023/05/11 07:24:30;;;;;;;;;;;;;;;;;;5048190;28;1041;-62
2023/05/11 07:26:56;;;;;;;;;;;;;;;;;;5047925;28;4608;-63
2023/05/11 07:29:21;;;;;;;;;;;;;;;;;;5044616;28;5138;-63
2023/05/11 07:31:47;;;;;;;;;;;;;;;;;;5046203;28;4616;-62
2023/05/11 07:34:12;;;;;;;;;;;;;;;;;;5046724;28;4608;-63
2023/05/11 07:36:37;;;;;;;;;;;;;;;;;;5046648;28;1741;-63
2023/05/11 07:39:02;;;;;;;;;;;;;;;;;;5047222;28;4921;-62
2023/05/11 07:41:28;;;;;;;;;;;;;;;;;;5049611;28;4455;-63
2023/05/11 07:43:53;;;;;;;;;;;;;;;;;;5046331;28;4491;-63
2023/05/11 07:46:18;;;;;;;;;;;;;;;;;;5050200;28;4500;-62
2023/05/11 07:48:44;;;;;;;;;;;;;;;;;;5051635;28;1266;-63
2023/05/11 07:51:10;;;;;;;;;;;;;;;;;;5049800;28;4621;-63
2023/05/11 07:53:35;;;;;;;;;;;;;;;;;;5051065;28;4988;-63
2023/05/11 07:56:02;;;;;;;;;;;;;;;;;;5057642;28;4726;-63
2023/05/11 07:58:27;;;;;;;;;;;;;;;;;;5057849;28;4603;-63
2023/05/11 08:00:53;;;;;;;;;;;;;;;;;;5055160;28;1906;-63
2023/05/11 08:03:18;;;;;;;;;;;;;;;;;;5041075;28;4969;-62
2023/05/11 08:05:43;;;;;;;;;;;;;;;;;;5051661;28;4601;-62
2023/05/11 08:08:08;;;;;;;;;;;;;;;;;;5050825;28;4947;-63
2023/05/11 08:10:34;;;;;;;;;;;;;;;;;;5051710;28;6403;-63
2023/05/11 08:13:00;;;;;;;;;;;;;;;;;;5049039;28;4639;-62
2023/05/11 08:15:25;;;;;;;;;;;;;;;;;;5040607;28;1367;-63
2023/05/11 08:17:50;;;;;;;;;;;;;;;;;;5059974;28;4428;-63
2023/05/11 08:20:15;;;;;;;;;;;;;;;;;;5060947;28;5024;-63
2023/05/11 08:22:41;;;;;;;;;;;;;;;;;;5057322;28;4664;-62
2023/05/11 08:25:06;;;;;;;;;;;;;;;;;;5049037;28;4537;-59
2023/05/11 08:27:31;;;;;;;;;;;;;;;;;;5049986;28;1156;-59
2023/05/11 08:29:57;;;;;;;;;;;;;;;;;;5049200;28;5047;-59
2023/05/11 08:32:22;;;;;;;;;;;;;;;;;;5049398;28;4411;-59
2023/05/11 08:34:47;;;;;;;;;;;;;;;;;;5049004;28;4800;-59
2023/05/11 08:37:12;;;;;;;;;;;;;;;;;;5049415;28;4504;-59
2023/05/11 08:39:38;;;;;;;;;;;;;;;;;;5049376;28;1156;-60
2023/05/11 08:42:05;;;;;;;;;;;;;;;;;;5038313;28;4625;-59
2023/05/11 08:44:31;;;;;;;;;;;;;;;;;;5040023;28;5188;-59
2023/05/11 08:46:57;;;;;;;;;;;;;;;;;;5049191;28;4670;-59
2023/05/11 08:49:22;;;;;;;;;;;;;;;;;;5049481;28;5021;-60
2023/05/11 08:51:47;;;;;;;;;;;;;;;;;;5046431;28;2003;-59
2023/05/11 08:54:12;;;;;;;;;;;;;;;;;;5063221;28;4910;-59
2023/05/11 08:56:39;;;;;;;;;;;;;;;;;;5048695;28;4481;-60
2023/05/11 08:59:05;;;;;;;;;;;;;;;;;;5049104;28;4417;-59
2023/05/11 09:01:30;;;;;;;;;;;;;;;;;;5043263;28;4739;-60
2023/05/11 09:03:56;;;;;;;;;;;;;;;;;;5042553;28;1190;-61
2023/05/11 09:06:22;;;;;;;;;;;;;;;;;;5046643;28;4596;-61
2023/05/11 09:08:47;;;;;;;;;;;;;;;;;;5047695;28;6197;-63
2023/05/11 09:11:13;;;;;;;;;;;;;;;;;;5051459;28;4685;-59
2023/05/11 09:13:38;;;;;;;;;;;;;;;;;;5047525;28;4994;-59
2023/05/11 09:16:03;;;;;;;;;;;;;;;;;;5046234;28;5078;-59
2023/05/11 09:18:28;;;;;;;;;;;;;;;;;;5049250;28;1130;-59
2023/05/11 09:20:54;;;;;;;;;;;;;;;;;;5048440;28;4972;-59
2023/05/11 09:23:26;;;;;;;;;;;;;;;;;;5048624;28;4433;-59
2023/05/11 09:25:51;;;;;;;;;;;;;;;;;;5048382;28;5048;-59
2023/05/11 09:28:19;;;;;;;;;;;;;;;;;;5048264;28;4457;-58
2023/05/11 09:30:45;;;;;;;;;;;;;;;;;;5047993;28;1102;-59
2023/05/11 09:33:10;;;;;;;;;;;;;;;;;;5047463;28;4469;-60
2023/05/11 09:35:35;;;;;;;;;;;;;;;;;;5048277;28;4662;-59
2023/05/11 09:38:10;;;;;;;;;;;;;;;;;;5048276;28;4649;-60
2023/05/11 09:40:41;;;;;;;;;;;;;;;;;;5035527;28;4717;-60
2023/05/11 09:43:15;;;;;;;;;;;;;;;;;;5049142;28;4454;-59
2023/05/11 09:45:41;;;;;;;;;;;;;;;;;;5046757;28;1733;-59
2023/05/11 09:48:12;;;;;;;;;;;;;;;;;;5048841;28;4427;-59
2023/05/11 09:50:37;;;;;;;;;;;;;;;;;;5048454;28;5093;-59
2023/05/11 09:53:03;;;;;;;;;;;;;;;;;;5047387;28;5147;-59
2023/05/11 09:55:28;;;;;;;;;;;;;;;;;;5048426;28;4474;-59
2023/05/11 09:57:54;;;;;;;;;;;;;;;;;;5049095;28;1183;-60
2023/05/11 10:00:20;;;;;;;;;;;;;;;;;;5048400;28;4780;-59
2023/05/11 10:02:45;;;;;;;;;;;;;;;;;;5044522;28;4682;-60
2023/05/11 10:05:11;;;;;;;;;;;;;;;;;;5045986;28;4479;-59
2023/05/11 10:07:37;;;;;;;;;;;;;;;;;;5046786;28;4433;-59
2023/05/11 10:10:06;;;;;;;;;;;;;;;;;;5046554;28;6118;-59
2023/05/11 10:12:37;;;;;;;;;;;;;;;;;;5045371;28;1674;-59
2023/05/11 10:15:05;;;;;;;;;;;;;;;;;;5042098;28;5050;-59
2023/05/11 10:17:30;;;;;;;;;;;;;;;;;;5045198;28;5145;-60
2023/05/11 10:19:56;;;;;;;;;;;;;;;;;;5046731;28;5328;-61
2023/05/11 10:22:21;;;;;;;;;;;;;;;;;;5044826;28;4446;-63
2023/05/11 10:24:46;;;;;;;;;;;;;;;;;;5044090;28;1896;-64
2023/05/11 10:27:12;;;;;;;;;;;;;;;;;;5045947;28;4492;-67
2023/05/11 10:29:37;;;;;;;;;;;;;;;;;;5046962;28;5098;-71
2023/05/11 10:32:03;;;;;;;;;;;;;;;;;;5075551;28;4498;-68
2023/05/11 10:34:28;;;;;;;;;;;;;;;;;;5047775;28;4926;-67
2023/05/11 10:36:53;;;;;;;;;;;;;;;;;;5046801;28;1169;-63
2023/05/11 10:39:18;;;;;;;;;;;;;;;;;;5034012;28;4577;-66
2023/05/11 10:41:47;;;;;;;;;;;;;;;;;;5039859;28;4693;-65
2023/05/11 10:44:23;;;;;;;;;;;;;;;;;;5045202;28;4578;-59
2023/05/11 10:47:01;;;;;;;;;;;;;;;;;;5049116;28;4677;-68
2023/05/11 10:49:32;;;;;;;;;;;;;;;;;;5060729;28;4557;-65
2023/05/11 10:52:01;;;;;;;;;;;;;;;;;;5053388;28;4401;-60
2023/05/11 10:54:45;;;;;;;;;;;;;;;;;;5045221;28;1679;-63
2023/05/11 10:57:12;;;;;;;;;;;;;;;;;;5043917;28;4933;-59
2023/05/11 10:59:46;;;;;;;;;;;;;;;;;;5046570;28;4460;-60
2023/05/11 11:02:12;;;;;;;;;;;;;;;;;;5048566;28;4593;-58
2023/05/11 11:04:41;;;;;;;;;;;;;;;;;;5047139;28;5031;-60
2023/05/11 11:07:06;;;;;;;;;;;;;;;;;;5045879;28;5252;-61
2023/05/11 11:09:50;;;;;;;;;;;;;;;;;;5047712;28;6222;-60
2023/05/11 11:12:15;;;;;;;;;;;;;;;;;;5047583;28;4805;-65
2023/05/11 11:14:56;;;;;;;;;;;;;;;;;;5040709;28;4709;-68
2023/05/11 11:17:22;;;;;;;;;;;;;;;;;;5051523;28;4483;-66
2023/05/11 11:19:48;;;;;;;;;;;;;;;;;;5041493;28;4526;-66
2023/05/11 11:22:32;;;;;;;;;;;;;;;;;;5048709;28;4847;-65
2023/05/11 11:24:57;;;;;;;;;;;;;;;;;;5049209;28;1026;-68
2023/05/11 11:27:42;;;;;;;;;;;;;;;;;;5052046;28;5000;-66
2023/05/11 11:30:27;;;;;;;;;;;;;;;;;;5076482;28;4628;-64
2023/05/11 11:32:53;;;;;;;;;;;;;;;;;;5049939;28;4534;-66
2023/05/11 11:35:37;;;;;;;;;;;;;;;;;;5050230;28;4677;-65
2023/05/11 11:38:03;;;;;;;;;;;;;;;;;;5051691;28;4607;-69
2023/05/11 11:40:37;;;;;;;;;;;;;;;;;;5044493;28;4590;-66
2023/05/11 11:43:12;;;;;;;;;;;;;;;;;;5051395;28;4463;-65
2023/05/11 11:45:38;;;;;;;;;;;;;;;;;;5051626;28;1452;-68
2023/05/11 11:48:10;;;;;;;;;;;;;;;;;;5050908;28;5014;-63
2023/05/11 11:50:35;;;;;;;;;;;;;;;;;;5048157;28;4688;-70
2023/05/11 11:53:00;;;;;;;;;;;;;;;;;;5048716;28;4684;-67
2023/05/11 11:55:44;;;;;;;;;;;;;;;;;;5050226;28;4761;-66
2023/05/11 11:58:10;;;;;;;;;;;;;;;;;;5051090;28;4522;-68
2023/05/11 12:00:35;;;;;;;;;;;;;;;;;;5048883;28;1929;-64
2023/05/11 12:03:01;;;;;;;;;;;;;;;;;;5048150;28;4436;-63
2023/05/11 12:05:27;;;;;;;;;;;;;;;;;;5049968;28;4643;-68
2023/05/11 12:07:52;;;;;;;;;;;;;;;;;;5050894;28;4454;-67
2023/05/11 12:10:21;;;;;;;;;;;;;;;;;;5050663;28;6265;-66
2023/05/11 12:12:47;;;;;;;;;;;;;;;;;;5045498;28;1706;-65
2023/05/11 12:15:25;;;;;;;;;;;;;;;;;;5049903;28;4584;-66
2023/05/11 12:17:50;;;;;;;;;;;;;;;;;;5043675;28;4945;-63
2023/05/11 12:20:16;;;;;;;;;;;;;;;;;;5045122;28;4974;-61
2023/05/11 12:22:42;;;;;;;;;;;;;;;;;;5048743;28;4717;-61
2023/05/11 12:25:09;;;;;;;;;;;;;;;;;;5082843;28;4985;-62
2023/05/11 12:27:35;;;;;;;;;;;;;;;;;;5048094;28;1111;-64
2023/05/11 12:30:00;;;;;;;;;;;;;;;;;;5049962;28;4593;-64
2023/05/11 12:32:26;;;;;;;;;;;;;;;;;;5050090;28;4451;-63
2023/05/11 12:35:01;;;;;;;;;;;;;;;;;;5050339;28;4634;-63
2023/05/11 12:37:30;;;;;;;;;;;;;;;;;;5050815;28;4631;-62
2023/05/11 12:39:55;;;;;;;;;;;;;;;;;;5048772;28;2551;-66
2023/05/11 12:42:20;;;;;;;;;;;;;;;;;;5049314;28;4596;-62
2023/05/11 12:44:46;;;;;;;;;;;;;;;;;;5048987;28;4652;-65
2023/05/11 12:47:11;;;;;;;;;;;;;;;;;;5048717;28;4869;-63
2023/05/11 12:49:36;;;;;;;;;;;;;;;;;;5049552;28;4609;-62
2023/05/11 12:52:09;;;;;;;;;;;;;;;;;;5049607;28;4619;-63
2023/05/11 12:54:36;;;;;;;;;;;;;;;;;;5059817;28;1614;-63
2023/05/11 12:57:02;;;;;;;;;;;;;;;;;;5049607;28;4604;-63
2023/05/11 12:59:31;;;;;;;;;;;;;;;;;;5048665;28;4598;-63
2023/05/11 13:02:16;;;;;;;;;;;;;;;;;;5047751;28;4517;-66
2023/05/11 13:04:41;;;;;;;;;;;;;;;;;;5041240;28;4866;-61
2023/05/11 13:07:06;;;;;;;;;;;;;;;;;;5045791;28;4862;-63
2023/05/11 13:09:32;;;;;;;;;;;;;;;;;;5048042;28;6403;-63
2023/05/11 13:12:11;;;;;;;;;;;;;;;;;;5047461;28;4576;-62
2023/05/11 13:14:36;;;;;;;;;;;;;;;;;;5040270;28;4677;-64
2023/05/11 13:17:02;;;;;;;;;;;;;;;;;;5047130;28;4898;-61
2023/05/11 13:19:28;;;;;;;;;;;;;;;;;;5046456;28;4513;-60
2023/05/11 13:21:53;;;;;;;;;;;;;;;;;;5045815;28;1929;-59
2023/05/11 13:24:19;;;;;;;;;;;;;;;;;;5043823;28;4945;-59
2023/05/11 13:26:45;;;;;;;;;;;;;;;;;;5048779;28;4984;-60
2023/05/11 13:29:10;;;;;;;;;;;;;;;;;;5046891;28;5877;-60
2023/05/11 13:31:41;;;;;;;;;;;;;;;;;;5049078;28;4677;-60
2023/05/11 13:34:06;;;;;;;;;;;;;;;;;;5047994;28;4485;-59
2023/05/11 13:36:31;;;;;;;;;;;;;;;;;;5049944;28;1336;-59
2023/05/11 13:38:56;;;;;;;;;;;;;;;;;;5047383;28;4469;-60
2023/05/11 13:41:22;;;;;;;;;;;;;;;;;;5047061;28;4651;-60
2023/05/11 13:43:49;;;;;;;;;;;;;;;;;;5048759;28;4748;-59
2023/05/11 13:46:15;;;;;;;;;;;;;;;;;;5048135;28;4679;-60
2023/05/11 13:48:40;;;;;;;;;;;;;;;;;;5045529;28;1705;-60
2023/05/11 13:51:05;;;;;;;;;;;;;;;;;;5044160;28;4940;-59
2023/05/11 13:53:31;;;;;;;;;;;;;;;;;;5048578;28;4675;-58
2023/05/11 13:55:56;;;;;;;;;;;;;;;;;;5047482;28;5058;-62
2023/05/11 13:58:21;;;;;;;;;;;;;;;;;;5050159;28;4797;-62
2023/05/11 14:00:47;;;;;;;;;;;;;;;;;;5046822;28;1902;-62
2023/05/11 14:03:12;;;;;;;;;;;;;;;;;;5050461;28;4655;-61
2023/05/11 14:05:37;;;;;;;;;;;;;;;;;;5046382;28;4646;-62
2023/05/11 14:08:03;;;;;;;;;;;;;;;;;;5046392;28;5068;-63
2023/05/11 14:10:28;;;;;;;;;;;;;;;;;;5043561;28;6333;-62
2023/05/11 14:12:54;;;;;;;;;;;;;;;;;;5047547;28;1749;-62
2023/05/11 14:15:19;;;;;;;;;;;;;;;;;;5046473;28;4919;-62
2023/05/11 14:17:44;;;;;;;;;;;;;;;;;;5076984;28;4520;-63
2023/05/11 14:20:12;;;;;;;;;;;;;;;;;;5046721;28;4469;-63
2023/05/11 14:22:38;;;;;;;;;;;;;;;;;;5028354;28;4512;-63
2023/05/11 14:25:04;;;;;;;;;;;;;;;;;;5048048;28;5227;-63
2023/05/11 14:27:29;;;;;;;;;;;;;;;;;;5060090;28;1622;-65
2023/05/11 14:29:54;;;;;;;;;;;;;;;;;;5050510;28;4653;-65
2023/05/11 14:32:20;;;;;;;;;;;;;;;;;;5046710;28;4496;-62
2023/05/11 14:34:45;;;;;;;;;;;;;;;;;;5051952;28;4524;-61
2023/05/11 14:37:11;;;;;;;;;;;;;;;;;;5046458;28;5119;-61
2023/05/11 14:39:37;;;;;;;;;;;;;;;;;;5047514;28;1077;-60
2023/05/11 14:42:02;;;;;;;;;;;;;;;;;;5046658;28;4632;-60
2023/05/11 14:44:27;;;;;;;;;;;;;;;;;;5042621;28;4789;-60
2023/05/11 14:46:52;;;;;;;;;;;;;;;;;;5042947;28;4531;-60
2023/05/11 14:49:18;;;;;;;;;;;;;;;;;;5046645;28;4698;-60
2023/05/11 14:51:43;;;;;;;;;;;;;;;;;;5037523;28;1032;-61
2023/05/11 14:54:08;;;;;;;;;;;;;;;;;;5040443;28;4598;-60
2023/05/11 14:56:33;;;;;;;;;;;;;;;;;;5043405;28;4487;-59
2023/05/11 14:58:59;;;;;;;;;;;;;;;;;;5046728;28;4477;-60
2023/05/11 15:01:24;;;;;;;;;;;;;;;;;;5043125;28;4568;-60
2023/05/11 15:03:49;;;;;;;;;;;;;;;;;;5047437;28;1115;-59
2023/05/11 15:06:19;;;;;;;;;;;;;;;;;;5046699;28;4620;-60
2023/05/11 15:08:45;;;;;;;;;;;;;;;;;;5046382;28;6396;-60
2023/05/11 15:11:10;;;;;;;;;;;;;;;;;;5046970;28;4433;-60
2023/05/11 15:13:35;;;;;;;;;;;;;;;;;;5047438;28;5023;-60
2023/05/11 15:16:01;;;;;;;;;;;;;;;;;;5043894;28;4470;-60
2023/05/11 15:18:26;;;;;;;;;;;;;;;;;;5047409;28;1140;-60
2023/05/11 15:20:51;;;;;;;;;;;;;;;;;;5045903;28;5106;-60
2023/05/11 15:23:16;;;;;;;;;;;;;;;;;;5047421;28;5125;-60
2023/05/11 15:25:43;;;;;;;;;;;;;;;;;;5046540;28;5189;-61
2023/05/11 15:28:10;;;;;;;;;;;;;;;;;;5043404;28;5162;-60
2023/05/11 15:30:35;;;;;;;;;;;;;;;;;;5047176;28;1496;-60
2023/05/11 15:33:00;;;;;;;;;;;;;;;;;;5046953;28;4879;-60
2023/05/11 15:35:25;;;;;;;;;;;;;;;;;;5047169;28;4767;-59
2023/05/11 15:37:51;;;;;;;;;;;;;;;;;;5046876;28;4758;-59
2023/05/11 15:40:16;;;;;;;;;;;;;;;;;;5046119;28;4637;-59
2023/05/11 15:42:41;;;;;;;;;;;;;;;;;;5046806;28;1914;-59
2023/05/11 15:45:07;;;;;;;;;;;;;;;;;;5036644;28;4500;-59
2023/05/11 15:47:32;;;;;;;;;;;;;;;;;;5045225;28;4430;-60
2023/05/11 15:49:58;;;;;;;;;;;;;;;;;;5046291;28;4464;-59
2023/05/11 15:52:23;;;;;;;;;;;;;;;;;;5046066;28;5663;-59
2023/05/11 15:54:48;;;;;;;;;;;;;;;;;;5046688;28;1154;-59
2023/05/11 15:57:14;;;;;;;;;;;;;;;;;;5046300;28;4432;-60
2023/05/11 15:59:39;;;;;;;;;;;;;;;;;;5045987;28;4927;-60
2023/05/11 16:02:05;;;;;;;;;;;;;;;;;;5046711;28;4746;-59
2023/05/11 16:04:30;;;;;;;;;;;;;;;;;;5050612;28;5136;-60
2023/05/11 16:06:55;;;;;;;;;;;;;;;;;;5051070;28;1044;-59
2023/05/11 16:09:20;;;;;;;;;;;;;;;;;;5050038;28;6584;-59
2023/05/11 16:11:46;;;;;;;;;;;;;;;;;;5049937;28;4938;-60
2023/05/11 16:14:11;;;;;;;;;;;;;;;;;;5047194;28;4708;-60
2023/05/11 16:16:36;;;;;;;;;;;;;;;;;;5048752;28;4992;-60
2023/05/11 16:19:02;;;;;;;;;;;;;;;;;;5050040;28;4624;-60
2023/05/11 16:21:27;;;;;;;;;;;;;;;;;;5049577;28;1914;-60
2023/05/11 16:23:53;;;;;;;;;;;;;;;;;;5049745;28;4643;-60
2023/05/11 16:26:19;;;;;;;;;;;;;;;;;;5050370;28;4602;-60
2023/05/11 16:28:44;;;;;;;;;;;;;;;;;;5047050;28;1171;-60
2023/05/11 16:31:09;;;;;;;;;;;;;;;;;;5030657;28;1109;-60
2023/05/11 16:33:36;;;;;;;;;;;;;;;;;;5028891;28;1229;-60
2023/05/11 16:36:02;;;;;;;;;;;;;;;;;;5048780;28;1496;-61
2023/05/11 16:38:27;;;;;;;;;;;;;;;;;;5050544;28;1097;-60
2023/05/11 16:40:54;;;;;;;;;;;;;;;;;;5050213;28;1973;-60
2023/05/11 16:43:19;;;;;;;;;;;;;;;;;;5048537;28;1394;-59
2023/05/11 16:45:44;;;;;;;;;;;;;;;;;;5048101;28;1741;-60
2023/05/11 16:48:09;;;;;;;;;;;;;;;;;;5050186;28;1143;-60
2023/05/11 16:50:35;;;;;;;;;;;;;;;;;;5048710;28;1220;-60
2023/05/11 16:53:00;;;;;;;;;;;;;;;;;;5050309;28;1202;-60
2023/05/11 16:55:25;;;;;;;;;;;;;;;;;;5050066;28;1076;-60
2023/05/11 16:57:51;;;;;;;;;;;;;;;;;;5050235;28;1152;-60